sensor_id;sensor_type;location;lat;lon;timestamp;P1;durP1;ratioP1;P2;durP2;ratioP2
40787;SDS011;26497;52.494;7.546;2023-10-08T00:02:23;1999.90;;;999.90;;
40787;SDS011;26497;52.494;7.546;2023-10-08T00:04:55;1999.90;;;999.90;;
40787;SDS011;26497;52.494;7.546;2023-10-08T00:07:23;1999.90;;;999.90;;
40787;SDS011;26497;52.494;7.546;2023-10-08T00:09:51;1999.90;;;999.90;;
40787;SDS011;26497;52.494;7.546;2023-10-08T00:12:18;1999.90;;;999.90;;
40787;SDS011;26497;52.494;7.546;2023-10-08T00:14:46;1999.90;;;999.90;;
40787;SDS011;26497;52.494;7.546;2023-10-08T00:17:16;1999.90;;;999.90;;
40787;SDS011;26497;52.494;7.546;2023-10-08T00:19:43;1999.90;;;999.90;;
40787;SDS011;26497;52.494;7.546;2023-10-08T00:22:10;1999.90;;;999.90;;
40787;SDS011;26497;52.494;7.546;2023-10-08T00:24:39;1999.90;;;999.90;;
40787;SDS011;26497;52.494;7.546;2023-10-08T00:27:08;1999.90;;;999.90;;
40787;SDS011;26497;52.494;7.546;2023-10-08T00:29:39;1999.90;;;999.90;;
40787;SDS011;26497;52.494;7.546;2023-10-08T00:32:08;1999.90;;;999.90;;
40787;SDS011;26497;52.494;7.546;2023-10-08T00:34:38;1999.90;;;999.90;;
40787;SDS011;26497;52.494;7.546;2023-10-08T00:37:08;1999.90;;;999.90;;
40787;SDS011;26497;52.494;7.546;2023-10-08T00:39:39;1999.90;;;999.90;;
40787;SDS011;26497;52.494;7.546;2023-10-08T00:42:06;1999.90;;;999.90;;
40787;SDS011;26497;52.494;7.546;2023-10-08T00:44:37;1999.90;;;999.90;;
40787;SDS011;26497;52.494;7.546;2023-10-08T00:47:12;1999.90;;;999.90;;
40787;SDS011;26497;52.494;7.546;2023-10-08T00:49:42;1999.90;;;999.90;;
40787;SDS011;26497;52.494;7.546;2023-10-08T00:52:19;1999.90;;;999.90;;
40787;SDS011;26497;52.494;7.546;2023-10-08T00:54:54;1999.90;;;999.90;;
40787;SDS011;26497;52.494;7.546;2023-10-08T00:57:34;85.10;;;80.70;;
40787;SDS011;26497;52.494;7.546;2023-10-08T01:00:07;85.05;;;80.55;;
40787;SDS011;26497;52.494;7.546;2023-10-08T01:02:42;83.30;;;78.95;;
40787;SDS011;26497;52.494;7.546;2023-10-08T01:05:11;83.78;;;79.47;;
40787;SDS011;26497;52.494;7.546;2023-10-08T01:07:43;79.07;;;75.05;;
40787;SDS011;26497;52.494;7.546;2023-10-08T01:10:13;79.07;;;74.90;;
40787;SDS011;26497;52.494;7.546;2023-10-08T01:12:47;79.18;;;74.97;;
40787;SDS011;26497;52.494;7.546;2023-10-08T01:15:30;81.40;;;77.10;;
40787;SDS011;26497;52.494;7.546;2023-10-08T01:18:01;78.05;;;73.82;;
40787;SDS011;26497;52.494;7.546;2023-10-08T01:20:31;78.95;;;74.72;;
40787;SDS011;26497;52.494;7.546;2023-10-08T01:23:05;78.00;;;73.78;;
40787;SDS011;26497;52.494;7.546;2023-10-08T01:25:38;79.65;;;74.95;;
40787;SDS011;26497;52.494;7.546;2023-10-08T01:28:07;79.43;;;75.03;;
40787;SDS011;26497;52.494;7.546;2023-10-08T01:30:41;77.30;;;73.07;;
40787;SDS011;26497;52.494;7.546;2023-10-08T01:33:11;76.90;;;72.70;;
40787;SDS011;26497;52.494;7.546;2023-10-08T01:35:40;80.88;;;76.22;;
40787;SDS011;26497;52.494;7.546;2023-10-08T01:38:08;83.35;;;78.57;;
40787;SDS011;26497;52.494;7.546;2023-10-08T01:43:06;83.15;;;78.53;;
40787;SDS011;26497;52.494;7.546;2023-10-08T01:45:35;87.60;;;82.25;;
40787;SDS011;26497;52.494;7.546;2023-10-08T01:48:06;88.05;;;82.90;;
40787;SDS011;26497;52.494;7.546;2023-10-08T01:50:35;88.80;;;83.60;;
40787;SDS011;26497;52.494;7.546;2023-10-08T01:53:03;91.45;;;85.82;;
40787;SDS011;26497;52.494;7.546;2023-10-08T01:55:35;89.03;;;83.43;;
40787;SDS011;26497;52.494;7.546;2023-10-08T01:58:14;86.88;;;81.68;;
40787;SDS011;26497;52.494;7.546;2023-10-08T02:00:43;89.78;;;84.28;;
40787;SDS011;26497;52.494;7.546;2023-10-08T02:03:11;90.22;;;84.75;;
40787;SDS011;26497;52.494;7.546;2023-10-08T02:05:40;90.60;;;85.03;;
40787;SDS011;26497;52.494;7.546;2023-10-08T02:08:08;91.22;;;85.50;;
40787;SDS011;26497;52.494;7.546;2023-10-08T02:10:38;93.90;;;88.10;;
40787;SDS011;26497;52.494;7.546;2023-10-08T02:13:06;95.28;;;89.22;;
40787;SDS011;26497;52.494;7.546;2023-10-08T02:15:34;95.57;;;89.93;;
40787;SDS011;26497;52.494;7.546;2023-10-08T02:18:04;95.63;;;90.10;;
40787;SDS011;26497;52.494;7.546;2023-10-08T02:20:31;100.35;;;94.30;;
40787;SDS011;26497;52.494;7.546;2023-10-08T02:22:58;102.63;;;96.38;;
40787;SDS011;26497;52.494;7.546;2023-10-08T02:25:25;99.90;;;93.97;;
40787;SDS011;26497;52.494;7.546;2023-10-08T02:27:54;100.43;;;94.53;;
40787;SDS011;26497;52.494;7.546;2023-10-08T02:30:22;99.05;;;92.78;;
40787;SDS011;26497;52.494;7.546;2023-10-08T02:32:49;101.75;;;95.30;;
40787;SDS011;26497;52.494;7.546;2023-10-08T02:35:17;99.75;;;93.68;;
40787;SDS011;26497;52.494;7.546;2023-10-08T02:37:44;100.55;;;94.15;;
40787;SDS011;26497;52.494;7.546;2023-10-08T02:40:11;104.68;;;97.70;;
40787;SDS011;26497;52.494;7.546;2023-10-08T02:42:52;105.22;;;98.53;;
40787;SDS011;26497;52.494;7.546;2023-10-08T02:47:51;94.45;;;88.53;;
40787;SDS011;26497;52.494;7.546;2023-10-08T02:50:18;102.68;;;96.32;;
40787;SDS011;26497;52.494;7.546;2023-10-08T02:52:47;101.15;;;94.90;;
40787;SDS011;26497;52.494;7.546;2023-10-08T02:55:15;102.50;;;96.05;;
40787;SDS011;26497;52.494;7.546;2023-10-08T02:57:54;103.30;;;96.95;;
40787;SDS011;26497;52.494;7.546;2023-10-08T03:00:22;104.78;;;97.50;;
40787;SDS011;26497;52.494;7.546;2023-10-08T03:02:54;107.05;;;100.03;;
40787;SDS011;26497;52.494;7.546;2023-10-08T03:05:22;106.05;;;98.90;;
40787;SDS011;26497;52.494;7.546;2023-10-08T03:07:54;111.28;;;104.25;;
40787;SDS011;26497;52.494;7.546;2023-10-08T03:10:23;108.65;;;101.68;;
40787;SDS011;26497;52.494;7.546;2023-10-08T03:12:58;107.38;;;100.40;;
40787;SDS011;26497;52.494;7.546;2023-10-08T03:15:29;109.47;;;102.53;;
40787;SDS011;26497;52.494;7.546;2023-10-08T03:18:03;105.57;;;98.65;;
40787;SDS011;26497;52.494;7.546;2023-10-08T03:20:34;102.93;;;96.20;;
40787;SDS011;26497;52.494;7.546;2023-10-08T03:23:08;98.93;;;92.72;;
40787;SDS011;26497;52.494;7.546;2023-10-08T03:25:50;100.20;;;93.28;;
40787;SDS011;26497;52.494;7.546;2023-10-08T03:28:23;104.28;;;97.43;;
40787;SDS011;26497;52.494;7.546;2023-10-08T03:30:52;103.13;;;95.95;;
40787;SDS011;26497;52.494;7.546;2023-10-08T03:33:29;97.88;;;91.53;;
40787;SDS011;26497;52.494;7.546;2023-10-08T03:35:59;111.40;;;103.85;;
40787;SDS011;26497;52.494;7.546;2023-10-08T03:38:34;112.25;;;104.50;;
40787;SDS011;26497;52.494;7.546;2023-10-08T03:41:16;111.53;;;103.85;;
40787;SDS011;26497;52.494;7.546;2023-10-08T03:43:53;113.55;;;106.38;;
40787;SDS011;26497;52.494;7.546;2023-10-08T03:46:27;116.78;;;109.05;;
40787;SDS011;26497;52.494;7.546;2023-10-08T03:48:55;113.13;;;105.70;;
40787;SDS011;26497;52.494;7.546;2023-10-08T03:51:22;118.60;;;110.43;;
40787;SDS011;26497;52.494;7.546;2023-10-08T03:53:52;117.13;;;109.53;;
40787;SDS011;26497;52.494;7.546;2023-10-08T03:56:40;113.35;;;105.90;;
40787;SDS011;26497;52.494;7.546;2023-10-08T03:59:12;114.18;;;106.88;;
40787;SDS011;26497;52.494;7.546;2023-10-08T04:01:39;118.43;;;110.75;;
40787;SDS011;26497;52.494;7.546;2023-10-08T04:04:07;117.72;;;110.10;;
40787;SDS011;26497;52.494;7.546;2023-10-08T04:09:14;97.88;;;91.72;;
40787;SDS011;26497;52.494;7.546;2023-10-08T04:11:49;109.93;;;103.05;;
40787;SDS011;26497;52.494;7.546;2023-10-08T04:14:18;115.25;;;107.47;;
40787;SDS011;26497;52.494;7.546;2023-10-08T04:16:46;114.55;;;107.05;;
40787;SDS011;26497;52.494;7.546;2023-10-08T04:19:16;108.63;;;101.80;;
40787;SDS011;26497;52.494;7.546;2023-10-08T04:21:44;108.50;;;101.13;;
40787;SDS011;26497;52.494;7.546;2023-10-08T04:24:19;100.82;;;94.38;;
40787;SDS011;26497;52.494;7.546;2023-10-08T04:26:53;103.57;;;96.30;;
40787;SDS011;26497;52.494;7.546;2023-10-08T04:29:26;99.60;;;92.35;;
40787;SDS011;26497;52.494;7.546;2023-10-08T04:31:57;101.47;;;94.05;;
40787;SDS011;26497;52.494;7.546;2023-10-08T04:34:32;110.95;;;103.78;;
40787;SDS011;26497;52.494;7.546;2023-10-08T04:37:00;117.38;;;109.35;;
40787;SDS011;26497;52.494;7.546;2023-10-08T04:39:29;115.10;;;107.72;;
40787;SDS011;26497;52.494;7.546;2023-10-08T04:41:59;113.50;;;105.03;;
40787;SDS011;26497;52.494;7.546;2023-10-08T04:44:37;104.57;;;97.50;;
40787;SDS011;26497;52.494;7.546;2023-10-08T04:47:05;109.15;;;101.82;;
40787;SDS011;26497;52.494;7.546;2023-10-08T04:49:33;112.50;;;105.30;;
40787;SDS011;26497;52.494;7.546;2023-10-08T04:52:05;112.77;;;105.50;;
40787;SDS011;26497;52.494;7.546;2023-10-08T04:54:39;112.72;;;104.90;;
40787;SDS011;26497;52.494;7.546;2023-10-08T04:57:16;109.22;;;101.10;;
40787;SDS011;26497;52.494;7.546;2023-10-08T04:59:49;106.82;;;98.97;;
40787;SDS011;26497;52.494;7.546;2023-10-08T05:02:16;108.47;;;101.50;;
40787;SDS011;26497;52.494;7.546;2023-10-08T05:04:58;110.10;;;102.28;;
40787;SDS011;26497;52.494;7.546;2023-10-08T05:07:43;110.20;;;101.95;;
40787;SDS011;26497;52.494;7.546;2023-10-08T05:10:28;113.05;;;104.40;;
40787;SDS011;26497;52.494;7.546;2023-10-08T05:13:12;110.60;;;102.47;;
40787;SDS011;26497;52.494;7.546;2023-10-08T05:15:45;109.95;;;101.38;;
40787;SDS011;26497;52.494;7.546;2023-10-08T05:18:27;106.68;;;99.07;;
40787;SDS011;26497;52.494;7.546;2023-10-08T05:21:23;106.43;;;97.97;;
40787;SDS011;26497;52.494;7.546;2023-10-08T05:24:06;105.68;;;97.72;;
40787;SDS011;26497;52.494;7.546;2023-10-08T05:26:38;103.10;;;94.93;;
40787;SDS011;26497;52.494;7.546;2023-10-08T05:29:10;103.25;;;95.60;;
40787;SDS011;26497;52.494;7.546;2023-10-08T05:32:16;102.63;;;94.45;;
40787;SDS011;26497;52.494;7.546;2023-10-08T05:35:03;105.13;;;96.07;;
40787;SDS011;26497;52.494;7.546;2023-10-08T05:37:45;100.25;;;92.40;;
40787;SDS011;26497;52.494;7.546;2023-10-08T05:40:17;105.47;;;96.60;;
40787;SDS011;26497;52.494;7.546;2023-10-08T05:43:19;103.68;;;94.95;;
40787;SDS011;26497;52.494;7.546;2023-10-08T05:46:11;101.15;;;93.47;;
40787;SDS011;26497;52.494;7.546;2023-10-08T05:49:01;99.25;;;91.43;;
40787;SDS011;26497;52.494;7.546;2023-10-08T05:51:41;103.88;;;95.18;;
40787;SDS011;26497;52.494;7.546;2023-10-08T05:54:22;105.93;;;97.47;;
40787;SDS011;26497;52.494;7.546;2023-10-08T05:57:02;104.60;;;95.88;;
40787;SDS011;26497;52.494;7.546;2023-10-08T05:59:39;108.38;;;98.97;;
40787;SDS011;26497;52.494;7.546;2023-10-08T06:02:39;108.45;;;99.93;;
40787;SDS011;26497;52.494;7.546;2023-10-08T06:05:27;107.00;;;98.75;;
40787;SDS011;26497;52.494;7.546;2023-10-08T06:07:58;109.65;;;101.85;;
40787;SDS011;26497;52.494;7.546;2023-10-08T06:10:36;108.55;;;99.80;;
40787;SDS011;26497;52.494;7.546;2023-10-08T06:13:21;109.25;;;99.78;;
40787;SDS011;26497;52.494;7.546;2023-10-08T06:15:56;103.05;;;95.13;;
40787;SDS011;26497;52.494;7.546;2023-10-08T06:18:33;107.65;;;98.78;;
40787;SDS011;26497;52.494;7.546;2023-10-08T06:21:01;107.57;;;99.25;;
40787;SDS011;26497;52.494;7.546;2023-10-08T06:23:33;108.50;;;99.53;;
40787;SDS011;26497;52.494;7.546;2023-10-08T06:26:01;107.93;;;99.05;;
40787;SDS011;26497;52.494;7.546;2023-10-08T06:28:39;106.35;;;98.55;;
40787;SDS011;26497;52.494;7.546;2023-10-08T06:31:08;108.55;;;100.40;;
40787;SDS011;26497;52.494;7.546;2023-10-08T06:33:41;111.07;;;102.40;;
40787;SDS011;26497;52.494;7.546;2023-10-08T06:36:10;109.38;;;101.40;;
40787;SDS011;26497;52.494;7.546;2023-10-08T06:38:41;114.00;;;104.90;;
40787;SDS011;26497;52.494;7.546;2023-10-08T06:41:13;112.60;;;104.22;;
40787;SDS011;26497;52.494;7.546;2023-10-08T06:43:43;127.90;;;117.30;;
40787;SDS011;26497;52.494;7.546;2023-10-08T06:46:13;118.75;;;110.68;;
40787;SDS011;26497;52.494;7.546;2023-10-08T06:48:41;118.35;;;109.63;;
40787;SDS011;26497;52.494;7.546;2023-10-08T06:51:08;114.60;;;105.30;;
40787;SDS011;26497;52.494;7.546;2023-10-08T06:56:14;116.05;;;107.82;;
40787;SDS011;26497;52.494;7.546;2023-10-08T06:58:44;115.70;;;107.78;;
40787;SDS011;26497;52.494;7.546;2023-10-08T07:01:13;112.20;;;104.38;;
40787;SDS011;26497;52.494;7.546;2023-10-08T07:03:46;110.43;;;102.20;;
40787;SDS011;26497;52.494;7.546;2023-10-08T07:06:15;118.50;;;110.53;;
40787;SDS011;26497;52.494;7.546;2023-10-08T07:08:56;102.45;;;95.35;;
40787;SDS011;26497;52.494;7.546;2023-10-08T07:11:24;102.85;;;95.95;;
40787;SDS011;26497;52.494;7.546;2023-10-08T07:13:52;1999.90;;;999.90;;
40787;SDS011;26497;52.494;7.546;2023-10-08T07:16:20;1999.90;;;999.90;;
40787;SDS011;26497;52.494;7.546;2023-10-08T07:18:47;1999.90;;;999.90;;
40787;SDS011;26497;52.494;7.546;2023-10-08T07:21:18;1999.90;;;999.90;;
40787;SDS011;26497;52.494;7.546;2023-10-08T07:23:53;1999.90;;;999.90;;
40787;SDS011;26497;52.494;7.546;2023-10-08T07:26:22;1999.90;;;999.90;;
40787;SDS011;26497;52.494;7.546;2023-10-08T07:28:50;1999.90;;;999.90;;
40787;SDS011;26497;52.494;7.546;2023-10-08T07:31:19;1999.90;;;999.90;;
40787;SDS011;26497;52.494;7.546;2023-10-08T07:33:49;127.70;;;120.07;;
40787;SDS011;26497;52.494;7.546;2023-10-08T07:36:22;123.88;;;116.82;;
40787;SDS011;26497;52.494;7.546;2023-10-08T07:38:51;125.13;;;117.78;;
40787;SDS011;26497;52.494;7.546;2023-10-08T07:41:19;127.53;;;119.60;;
40787;SDS011;26497;52.494;7.546;2023-10-08T07:43:47;134.60;;;126.68;;
40787;SDS011;26497;52.494;7.546;2023-10-08T07:46:20;128.45;;;121.20;;
40787;SDS011;26497;52.494;7.546;2023-10-08T07:48:48;121.63;;;114.38;;
40787;SDS011;26497;52.494;7.546;2023-10-08T07:51:15;116.45;;;109.68;;
40787;SDS011;26497;52.494;7.546;2023-10-08T07:53:48;110.38;;;103.85;;
40787;SDS011;26497;52.494;7.546;2023-10-08T07:56:19;117.03;;;109.82;;
40787;SDS011;26497;52.494;7.546;2023-10-08T07:58:46;122.38;;;115.28;;
40787;SDS011;26497;52.494;7.546;2023-10-08T08:01:13;112.78;;;106.18;;
40787;SDS011;26497;52.494;7.546;2023-10-08T08:03:40;90.72;;;84.65;;
40787;SDS011;26497;52.494;7.546;2023-10-08T08:06:10;85.53;;;80.63;;
40787;SDS011;26497;52.494;7.546;2023-10-08T08:08:38;93.57;;;88.18;;
40787;SDS011;26497;52.494;7.546;2023-10-08T08:11:08;88.55;;;83.50;;
40787;SDS011;26497;52.494;7.546;2023-10-08T08:13:38;83.05;;;78.32;;
40787;SDS011;26497;52.494;7.546;2023-10-08T08:16:07;70.10;;;66.03;;
40787;SDS011;26497;52.494;7.546;2023-10-08T08:18:42;63.15;;;58.97;;
40787;SDS011;26497;52.494;7.546;2023-10-08T08:21:10;56.85;;;53.80;;
40787;SDS011;26497;52.494;7.546;2023-10-08T08:23:40;61.10;;;57.60;;
40787;SDS011;26497;52.494;7.546;2023-10-08T08:26:14;70.82;;;66.47;;
40787;SDS011;26497;52.494;7.546;2023-10-08T08:28:53;80.32;;;75.40;;
40787;SDS011;26497;52.494;7.546;2023-10-08T08:31:22;91.45;;;85.40;;
40787;SDS011;26497;52.494;7.546;2023-10-08T08:33:50;85.78;;;79.93;;
40787;SDS011;26497;52.494;7.546;2023-10-08T08:36:25;116.30;;;108.90;;
40787;SDS011;26497;52.494;7.546;2023-10-08T08:38:54;122.47;;;115.45;;
40787;SDS011;26497;52.494;7.546;2023-10-08T08:41:22;147.65;;;139.45;;
40787;SDS011;26497;52.494;7.546;2023-10-08T08:43:50;155.52;;;146.77;;
40787;SDS011;26497;52.494;7.546;2023-10-08T08:46:30;118.70;;;111.10;;
40787;SDS011;26497;52.494;7.546;2023-10-08T08:49:00;146.40;;;138.52;;
40787;SDS011;26497;52.494;7.546;2023-10-08T08:51:33;137.75;;;129.95;;
40787;SDS011;26497;52.494;7.546;2023-10-08T08:54:01;133.93;;;126.50;;
40787;SDS011;26497;52.494;7.546;2023-10-08T08:56:33;143.43;;;135.10;;
40787;SDS011;26497;52.494;7.546;2023-10-08T08:59:01;130.10;;;122.45;;
40787;SDS011;26497;52.494;7.546;2023-10-08T09:01:30;118.20;;;111.57;;
40787;SDS011;26497;52.494;7.546;2023-10-08T09:03:58;109.45;;;103.50;;
40787;SDS011;26497;52.494;7.546;2023-10-08T09:06:27;124.43;;;117.25;;
40787;SDS011;26497;52.494;7.546;2023-10-08T09:08:54;138.35;;;130.43;;
40787;SDS011;26497;52.494;7.546;2023-10-08T09:11:38;124.03;;;117.03;;
40787;SDS011;26497;52.494;7.546;2023-10-08T09:14:08;112.43;;;106.05;;
40787;SDS011;26497;52.494;7.546;2023-10-08T09:16:36;114.35;;;107.93;;
40787;SDS011;26497;52.494;7.546;2023-10-08T09:19:03;106.95;;;100.65;;
40787;SDS011;26497;52.494;7.546;2023-10-08T09:21:37;104.35;;;98.22;;
40787;SDS011;26497;52.494;7.546;2023-10-08T09:24:04;90.90;;;85.57;;
40787;SDS011;26497;52.494;7.546;2023-10-08T09:26:36;151.63;;;143.23;;
40787;SDS011;26497;52.494;7.546;2023-10-08T09:29:06;193.00;;;182.40;;
40787;SDS011;26497;52.494;7.546;2023-10-08T09:31:36;1999.90;;;999.90;;
40787;SDS011;26497;52.494;7.546;2023-10-08T09:34:03;1999.90;;;999.90;;
40787;SDS011;26497;52.494;7.546;2023-10-08T09:36:31;1999.90;;;999.90;;
40787;SDS011;26497;52.494;7.546;2023-10-08T09:38:59;1999.90;;;999.90;;
40787;SDS011;26497;52.494;7.546;2023-10-08T09:41:29;1999.90;;;999.90;;
40787;SDS011;26497;52.494;7.546;2023-10-08T09:43:58;1999.90;;;999.90;;
40787;SDS011;26497;52.494;7.546;2023-10-08T09:46:29;1999.90;;;999.90;;
40787;SDS011;26497;52.494;7.546;2023-10-08T09:49:00;1999.90;;;999.90;;
40787;SDS011;26497;52.494;7.546;2023-10-08T09:51:31;1999.90;;;999.90;;
40787;SDS011;26497;52.494;7.546;2023-10-08T09:54:05;1999.90;;;999.90;;
40787;SDS011;26497;52.494;7.546;2023-10-08T09:56:39;1999.90;;;999.90;;
40787;SDS011;26497;52.494;7.546;2023-10-08T09:59:08;1999.90;;;999.90;;
40787;SDS011;26497;52.494;7.546;2023-10-08T10:01:37;1999.90;;;999.90;;
40787;SDS011;26497;52.494;7.546;2023-10-08T10:04:08;1999.90;;;999.90;;
40787;SDS011;26497;52.494;7.546;2023-10-08T10:06:35;1999.90;;;999.90;;
40787;SDS011;26497;52.494;7.546;2023-10-08T10:09:04;1999.90;;;999.90;;
40787;SDS011;26497;52.494;7.546;2023-10-08T10:11:35;1999.90;;;999.90;;
40787;SDS011;26497;52.494;7.546;2023-10-08T10:14:02;1999.90;;;999.90;;
40787;SDS011;26497;52.494;7.546;2023-10-08T10:16:31;1999.90;;;999.90;;
40787;SDS011;26497;52.494;7.546;2023-10-08T10:19:03;1999.90;;;999.90;;
40787;SDS011;26497;52.494;7.546;2023-10-08T10:21:32;1999.90;;;999.90;;
40787;SDS011;26497;52.494;7.546;2023-10-08T10:23:59;1999.90;;;999.90;;
40787;SDS011;26497;52.494;7.546;2023-10-08T10:26:31;1999.90;;;999.90;;
40787;SDS011;26497;52.494;7.546;2023-10-08T10:31:51;1999.90;;;999.90;;
40787;SDS011;26497;52.494;7.546;2023-10-08T10:34:23;1999.90;;;999.90;;
40787;SDS011;26497;52.494;7.546;2023-10-08T10:36:53;1999.90;;;999.90;;
40787;SDS011;26497;52.494;7.546;2023-10-08T10:41:55;1999.90;;;999.90;;
40787;SDS011;26497;52.494;7.546;2023-10-08T10:44:26;1999.90;;;999.90;;
40787;SDS011;26497;52.494;7.546;2023-10-08T10:46:55;1999.90;;;999.90;;
40787;SDS011;26497;52.494;7.546;2023-10-08T10:49:38;1999.90;;;999.90;;
40787;SDS011;26497;52.494;7.546;2023-10-08T10:52:13;1999.90;;;999.90;;
40787;SDS011;26497;52.494;7.546;2023-10-08T10:54:45;1999.90;;;999.90;;
40787;SDS011;26497;52.494;7.546;2023-10-08T10:57:24;1999.90;;;999.90;;
40787;SDS011;26497;52.494;7.546;2023-10-08T11:00:01;1999.90;;;999.90;;
40787;SDS011;26497;52.494;7.546;2023-10-08T11:02:44;1999.90;;;999.90;;
40787;SDS011;26497;52.494;7.546;2023-10-08T11:05:15;1999.90;;;999.90;;
40787;SDS011;26497;52.494;7.546;2023-10-08T11:10:12;1999.90;;;999.90;;
40787;SDS011;26497;52.494;7.546;2023-10-08T11:12:40;1999.90;;;999.90;;
40787;SDS011;26497;52.494;7.546;2023-10-08T11:15:12;1999.90;;;999.90;;
40787;SDS011;26497;52.494;7.546;2023-10-08T11:17:40;1999.90;;;999.90;;
40787;SDS011;26497;52.494;7.546;2023-10-08T11:22:52;1999.90;;;999.90;;
40787;SDS011;26497;52.494;7.546;2023-10-08T11:25:21;1999.90;;;999.90;;
40787;SDS011;26497;52.494;7.546;2023-10-08T11:27:50;1999.90;;;999.90;;
40787;SDS011;26497;52.494;7.546;2023-10-08T11:30:24;1999.90;;;999.90;;
40787;SDS011;26497;52.494;7.546;2023-10-08T11:32:55;1999.90;;;999.90;;
40787;SDS011;26497;52.494;7.546;2023-10-08T11:35:25;1999.90;;;999.90;;
40787;SDS011;26497;52.494;7.546;2023-10-08T11:37:57;1999.90;;;999.90;;
40787;SDS011;26497;52.494;7.546;2023-10-08T11:40:26;1999.90;;;999.90;;
40787;SDS011;26497;52.494;7.546;2023-10-08T11:42:54;1999.90;;;999.90;;
40787;SDS011;26497;52.494;7.546;2023-10-08T11:45:24;1999.90;;;999.90;;
40787;SDS011;26497;52.494;7.546;2023-10-08T11:47:51;1999.90;;;999.90;;
40787;SDS011;26497;52.494;7.546;2023-10-08T11:50:26;1999.90;;;999.90;;
40787;SDS011;26497;52.494;7.546;2023-10-08T11:52:57;1999.90;;;999.90;;
40787;SDS011;26497;52.494;7.546;2023-10-08T11:55:28;1999.90;;;999.90;;
40787;SDS011;26497;52.494;7.546;2023-10-08T11:57:55;1999.90;;;999.90;;
40787;SDS011;26497;52.494;7.546;2023-10-08T12:00:22;1999.90;;;999.90;;
40787;SDS011;26497;52.494;7.546;2023-10-08T12:02:51;1999.90;;;999.90;;
40787;SDS011;26497;52.494;7.546;2023-10-08T12:05:20;1999.90;;;999.90;;
40787;SDS011;26497;52.494;7.546;2023-10-08T12:07:50;1999.90;;;999.90;;
40787;SDS011;26497;52.494;7.546;2023-10-08T12:10:22;1999.90;;;999.90;;
40787;SDS011;26497;52.494;7.546;2023-10-08T12:12:50;1999.90;;;999.90;;
40787;SDS011;26497;52.494;7.546;2023-10-08T12:15:18;1999.90;;;999.90;;
40787;SDS011;26497;52.494;7.546;2023-10-08T12:17:46;1999.90;;;999.90;;
40787;SDS011;26497;52.494;7.546;2023-10-08T12:20:34;1999.90;;;999.90;;
40787;SDS011;26497;52.494;7.546;2023-10-08T12:23:04;1999.90;;;999.90;;
40787;SDS011;26497;52.494;7.546;2023-10-08T12:25:31;1999.90;;;999.90;;
40787;SDS011;26497;52.494;7.546;2023-10-08T12:27:59;1999.90;;;999.90;;
40787;SDS011;26497;52.494;7.546;2023-10-08T12:30:29;1999.90;;;999.90;;
40787;SDS011;26497;52.494;7.546;2023-10-08T12:32:57;1999.90;;;999.90;;
40787;SDS011;26497;52.494;7.546;2023-10-08T12:35:26;1999.90;;;999.90;;
40787;SDS011;26497;52.494;7.546;2023-10-08T12:37:54;1999.90;;;999.90;;
40787;SDS011;26497;52.494;7.546;2023-10-08T12:40:23;1999.90;;;999.90;;
40787;SDS011;26497;52.494;7.546;2023-10-08T12:42:58;1999.90;;;999.90;;
40787;SDS011;26497;52.494;7.546;2023-10-08T12:45:25;1999.90;;;999.90;;
40787;SDS011;26497;52.494;7.546;2023-10-08T12:47:53;1999.90;;;999.90;;
40787;SDS011;26497;52.494;7.546;2023-10-08T12:50:20;1999.90;;;999.90;;
40787;SDS011;26497;52.494;7.546;2023-10-08T12:52:54;1999.90;;;999.90;;
40787;SDS011;26497;52.494;7.546;2023-10-08T12:55:22;1999.90;;;999.90;;
40787;SDS011;26497;52.494;7.546;2023-10-08T12:57:50;1999.90;;;999.90;;
40787;SDS011;26497;52.494;7.546;2023-10-08T13:00:21;1999.90;;;999.90;;
40787;SDS011;26497;52.494;7.546;2023-10-08T13:02:49;1999.90;;;999.90;;
40787;SDS011;26497;52.494;7.546;2023-10-08T13:05:19;1999.90;;;999.90;;
40787;SDS011;26497;52.494;7.546;2023-10-08T13:07:53;1999.90;;;999.90;;
40787;SDS011;26497;52.494;7.546;2023-10-08T13:10:23;1999.90;;;999.90;;
40787;SDS011;26497;52.494;7.546;2023-10-08T13:12:51;1999.90;;;999.90;;
40787;SDS011;26497;52.494;7.546;2023-10-08T13:15:18;1999.90;;;999.90;;
40787;SDS011;26497;52.494;7.546;2023-10-08T13:17:45;1999.90;;;999.90;;
40787;SDS011;26497;52.494;7.546;2023-10-08T13:20:13;1999.90;;;999.90;;
40787;SDS011;26497;52.494;7.546;2023-10-08T13:22:42;1999.90;;;999.90;;
40787;SDS011;26497;52.494;7.546;2023-10-08T13:25:09;1999.90;;;999.90;;
40787;SDS011;26497;52.494;7.546;2023-10-08T13:27:38;1999.90;;;999.90;;
40787;SDS011;26497;52.494;7.546;2023-10-08T13:30:06;1999.90;;;999.90;;
40787;SDS011;26497;52.494;7.546;2023-10-08T13:32:35;1999.90;;;999.90;;
40787;SDS011;26497;52.494;7.546;2023-10-08T13:35:02;1999.90;;;999.90;;
40787;SDS011;26497;52.494;7.546;2023-10-08T13:37:32;1999.90;;;999.90;;
40787;SDS011;26497;52.494;7.546;2023-10-08T13:40:00;1999.90;;;999.90;;
40787;SDS011;26497;52.494;7.546;2023-10-08T13:42:28;1999.90;;;999.90;;
40787;SDS011;26497;52.494;7.546;2023-10-08T13:44:57;1999.90;;;999.90;;
40787;SDS011;26497;52.494;7.546;2023-10-08T13:47:32;1999.90;;;999.90;;
40787;SDS011;26497;52.494;7.546;2023-10-08T13:49:59;1999.90;;;999.90;;
40787;SDS011;26497;52.494;7.546;2023-10-08T13:52:35;1999.90;;;999.90;;
40787;SDS011;26497;52.494;7.546;2023-10-08T13:55:04;1999.90;;;999.90;;
40787;SDS011;26497;52.494;7.546;2023-10-08T13:57:38;1999.90;;;999.90;;
40787;SDS011;26497;52.494;7.546;2023-10-08T14:00:08;1999.90;;;999.90;;
40787;SDS011;26497;52.494;7.546;2023-10-08T14:02:40;1999.90;;;999.90;;
40787;SDS011;26497;52.494;7.546;2023-10-08T14:05:09;1999.90;;;999.90;;
40787;SDS011;26497;52.494;7.546;2023-10-08T14:10:10;1999.90;;;999.90;;
40787;SDS011;26497;52.494;7.546;2023-10-08T14:12:44;1999.90;;;999.90;;
40787;SDS011;26497;52.494;7.546;2023-10-08T14:17:44;1999.90;;;999.90;;
40787;SDS011;26497;52.494;7.546;2023-10-08T14:20:13;1999.90;;;999.90;;
40787;SDS011;26497;52.494;7.546;2023-10-08T14:22:46;1999.90;;;999.90;;
40787;SDS011;26497;52.494;7.546;2023-10-08T14:25:22;1999.90;;;999.90;;
40787;SDS011;26497;52.494;7.546;2023-10-08T14:30:30;1999.90;;;999.90;;
40787;SDS011;26497;52.494;7.546;2023-10-08T14:35:28;1999.90;;;999.90;;
40787;SDS011;26497;52.494;7.546;2023-10-08T14:38:13;1999.90;;;999.90;;
40787;SDS011;26497;52.494;7.546;2023-10-08T14:40:58;1999.90;;;999.90;;
40787;SDS011;26497;52.494;7.546;2023-10-08T14:43:42;1999.90;;;999.90;;
40787;SDS011;26497;52.494;7.546;2023-10-08T14:46:11;1999.90;;;999.90;;
40787;SDS011;26497;52.494;7.546;2023-10-08T14:48:40;1999.90;;;999.90;;
40787;SDS011;26497;52.494;7.546;2023-10-08T14:51:07;1999.90;;;999.90;;
40787;SDS011;26497;52.494;7.546;2023-10-08T14:53:44;1999.90;;;999.90;;